Time;durP1;ratioP1;P1;durP2;ratioP2;P2;SDS_P1;SDS_P2;PMS_P1;PMS_P2;Temp;Humidity;BMP_temperature;BMP_pressure;BME280_temperature;BME280_humidity;BME280_pressure;Samples;Min_cycle;Max_cycle;Signal;HPM_P1;HPM_P2
2022/12/04 00:01:38;;;;;;;47.53;19.92;;;;;;;4.57;68.83;96915.00;4872632;28;20372;-76
2022/12/04 00:04:04;;;;;;;44.50;19.10;;;;;;;4.43;68.72;96916.91;4880889;28;20272;-77
2022/12/04 00:06:29;;;;;;;42.85;18.13;;;;;;;4.01;69.76;96921.75;4882171;28;20191;-77
2022/12/04 00:08:55;;;;;;;41.97;18.73;;;;;;;4.43;68.75;96916.91;4882502;28;20203;-77
2022/12/04 00:11:24;;;;;;;44.47;18.38;;;;;;;4.28;69.38;96907.72;4881913;28;20203;-76
2022/12/04 00:13:50;;;;;;;38.72;17.02;;;;;;;4.46;68.75;96906.97;4871639;28;20239;-76
2022/12/04 00:16:21;;;;;;;41.42;18.02;;;;;;;4.61;68.28;96906.63;4864074;28;20223;-77
2022/12/04 00:18:46;;;;;;;40.92;18.38;;;;;;;4.50;68.08;96895.22;4879630;28;20274;-76
2022/12/04 00:21:13;;;;;;;43.85;17.35;;;;;;;4.65;67.85;96896.69;4885316;28;20390;-77
2022/12/04 00:23:39;;;;;;;39.63;17.88;;;;;;;4.41;68.53;96887.97;4879687;28;20677;-76
2022/12/04 00:26:19;;;;;;;40.95;17.77;;;;;;;4.73;67.29;96877.56;4867155;29;20196;-77
2022/12/04 00:28:45;;;;;;;39.90;17.73;;;;;;;4.41;68.52;96870.72;4854210;29;20215;-77
2022/12/04 00:31:13;;;;;;;42.25;16.73;;;;;;;4.61;68.43;96865.38;4881784;28;20251;-77
2022/12/04 00:33:39;;;;;;;37.78;17.80;;;;;;;4.31;68.62;96858.28;4866708;28;20210;-77
2022/12/04 00:36:07;;;;;;;43.47;18.95;;;;;;;4.21;69.49;96858.00;4886091;28;20194;-77
2022/12/04 00:38:32;;;;;;;39.30;16.77;;;;;;;4.29;68.86;96873.19;4864375;29;20493;-76
2022/12/04 00:40:59;;;;;;;40.90;16.00;;;;;;;4.50;68.54;96876.38;4884131;28;20337;-77
2022/12/04 00:43:25;;;;;;;38.17;17.95;;;;;;;4.52;68.44;96871.78;4873282;28;20236;-77
2022/12/04 00:45:51;;;;;;;40.65;17.75;;;;;;;4.30;68.28;96859.31;4885567;28;20678;-77
2022/12/04 00:48:16;;;;;;;38.70;17.08;;;;;;;4.48;67.85;96876.59;4885927;28;20210;-77
2022/12/04 00:50:42;;;;;;;37.38;17.45;;;;;;;4.40;68.29;96869.13;4885706;28;20206;-78
2022/12/04 00:53:07;;;;;;;39.13;17.00;;;;;;;4.26;68.62;96855.56;4883691;28;20251;-76
2022/12/04 00:55:32;;;;;;;38.30;17.58;;;;;;;4.42;68.00;96850.88;4869378;28;20259;-76
2022/12/04 00:57:58;;;;;;;42.17;17.75;;;;;;;4.47;67.81;96858.75;4886007;28;20322;-77
2022/12/04 01:00:23;;;;;;;39.42;17.83;;;;;;;4.25;68.52;96853.19;4886028;28;20271;-77
2022/12/04 01:02:49;;;;;;;39.95;18.73;;;;;;;4.15;68.62;96853.69;4868191;28;20203;-77
2022/12/04 01:05:14;;;;;;;35.85;17.38;;;;;;;4.21;67.95;96860.56;4882406;28;20303;-77
2022/12/04 01:07:39;;;;;;;36.65;17.65;;;;;;;4.27;68.12;96870.03;4885127;28;20295;-76
2022/12/04 01:10:07;;;;;;;41.63;18.42;;;;;;;4.29;68.23;96862.88;4885778;28;20282;-77
2022/12/04 01:12:32;;;;;;;34.30;16.80;;;;;;;4.19;68.22;96862.56;4851226;29;20160;-76
2022/12/04 01:14:58;;;;;;;42.13;17.30;;;;;;;4.07;68.39;96870.19;4866842;29;20309;-76
2022/12/04 01:17:23;;;;;;;35.90;16.60;;;;;;;4.26;67.97;96880.56;4885072;28;20177;-77
2022/12/04 01:19:49;;;;;;;36.28;16.73;;;;;;;4.16;68.22;96887.97;4885583;28;20219;-76
2022/12/04 01:22:14;;;;;;;38.50;16.73;;;;;;;4.24;68.38;96878.19;4885082;28;20250;-76
2022/12/04 01:24:39;;;;;;;39.63;17.35;;;;;;;4.25;67.88;96887.50;4870463;28;20238;-77
2022/12/04 01:27:05;;;;;;;35.67;16.45;;;;;;;4.17;67.86;96885.19;4877679;28;20643;-76
2022/12/04 01:29:30;;;;;;;39.13;18.38;;;;;;;4.30;67.71;96892.81;4871652;28;20184;-77
2022/12/04 01:31:56;;;;;;;37.13;18.13;;;;;;;4.53;66.77;96886.28;4861231;28;20662;-77
2022/12/04 01:34:21;;;;;;;37.03;15.70;;;;;;;4.52;68.01;96882.09;4879002;28;20214;-76
2022/12/04 01:36:47;;;;;;;36.28;16.70;;;;;;;4.46;67.46;96880.41;4884230;28;20108;-77
2022/12/04 01:39:12;;;;;;;33.70;16.10;;;;;;;4.54;66.71;96887.06;4880275;28;20217;-77
2022/12/04 01:41:37;;;;;;;35.58;15.10;;;;;;;4.26;68.03;96891.66;4878259;28;20165;-77
2022/12/04 01:44:09;;;;;;;38.20;15.85;;;;;;;4.40;68.11;96891.53;4869030;28;20236;-77
2022/12/04 01:46:34;;;;;;;33.25;15.05;;;;;;;4.41;67.61;96895.72;4870429;28;20253;-77
2022/12/04 01:49:00;;;;;;;34.50;16.77;;;;;;;4.60;66.53;96893.94;4884834;28;20269;-76
2022/12/04 01:51:34;;;;;;;33.33;16.65;;;;;;;4.60;67.24;96893.94;4884944;28;20226;-77
2022/12/04 01:54:02;;;;;;;36.08;15.55;;;;;;;4.62;67.62;96902.25;4868575;28;20317;-77
2022/12/04 01:56:42;;;;;;;34.67;15.93;;;;;;;4.69;66.90;96897.81;4877929;28;20222;-76
2022/12/04 01:59:08;;;;;;;34.33;15.05;;;;;;;4.71;67.07;96898.38;4871880;28;20651;-76
2022/12/04 02:01:41;;;;;;;37.42;15.50;;;;;;;4.59;67.04;96880.28;4875448;28;20220;-77
2022/12/04 02:04:07;;;;;;;34.75;15.95;;;;;;;4.49;67.36;96872.25;4859219;29;20291;-78
2022/12/04 02:06:32;;;;;;;35.05;14.77;;;;;;;4.26;67.93;96877.97;4878070;28;20684;-76
2022/12/04 02:08:58;;;;;;;34.05;15.85;;;;;;;4.40;68.13;96870.91;4870276;28;20211;-77
2022/12/04 02:11:38;;;;;;;35.90;16.75;;;;;;;4.66;67.05;96873.25;4877488;28;20202;-76
2022/12/04 02:14:31;;;;;;;35.85;16.85;;;;;;;4.56;67.50;96872.16;4868281;28;20439;-77
2022/12/04 02:17:07;;;;;;;34.10;16.92;;;;;;;4.32;67.67;96861.69;4868111;29;20271;-77
2022/12/04 02:19:50;;;;;;;36.70;16.80;;;;;;;4.41;67.46;96865.56;4884595;28;20225;-77
2022/12/04 02:22:43;;;;;;;35.05;16.25;;;;;;;4.61;67.50;96864.56;4868944;28;20283;-77
2022/12/04 02:25:33;;;;;;;32.53;15.00;;;;;;;4.48;67.56;96852.63;4878925;28;20368;-76
2022/12/04 02:28:07;;;;;;;33.58;14.98;;;;;;;4.16;68.28;96847.53;4876657;28;20184;-76
2022/12/04 02:30:36;;;;;;;34.25;15.93;;;;;;;4.23;68.73;96855.19;4884564;28;20218;-77
2022/12/04 02:33:18;;;;;;;30.85;14.63;;;;;;;4.42;67.35;96851.69;4867981;28;20250;-77
2022/12/04 02:35:47;;;;;;;31.00;14.95;;;;;;;4.40;67.38;96855.47;4883314;28;20202;-77
2022/12/04 02:38:19;;;;;;;32.53;16.20;;;;;;;4.40;67.29;96856.22;4861385;29;20376;-77
2022/12/04 02:40:58;;;;;;;30.70;14.80;;;;;;;4.15;67.81;96864.00;4868045;29;20176;-77
2022/12/04 02:43:26;;;;;;;26.38;13.65;;;;;;;3.63;69.38;96859.00;4883454;28;20294;-76
2022/12/04 02:46:01;;;;;;;30.55;15.10;;;;;;;3.87;69.50;96854.91;4856650;29;20063;-76
2022/12/04 02:48:29;;;;;;;33.53;13.90;;;;;;;4.19;67.95;96867.72;4868739;29;20291;-76
2022/12/04 02:50:55;;;;;;;33.55;14.27;;;;;;;4.09;67.76;96883.66;4883954;28;20645;-76
2022/12/04 02:53:51;;;;;;;30.60;15.27;;;;;;;4.40;67.75;96883.81;4883484;28;20219;-77
2022/12/04 02:56:22;;;;;;;29.25;14.77;;;;;;;4.42;67.31;96876.66;4862016;29;20222;-77
2022/12/04 02:58:51;;;;;;;29.58;14.38;;;;;;;4.36;67.38;96872.34;4868502;29;20593;-76
2022/12/04 03:01:22;;;;;;;31.63;14.38;;;;;;;4.16;68.34;96870.72;4883809;28;20039;-76
2022/12/04 03:03:54;;;;;;;32.13;15.10;;;;;;;4.46;67.76;96880.41;4868918;28;20207;-77
2022/12/04 03:06:21;;;;;;;31.90;14.60;;;;;;;4.17;68.12;96874.09;4878787;28;20773;-77
2022/12/04 03:08:50;;;;;;;31.08;15.55;;;;;;;4.24;67.59;96875.63;4850462;28;20798;-76
2022/12/04 03:11:16;;;;;;;28.42;14.18;;;;;;;4.28;67.77;96874.22;4884186;28;20203;-77
2022/12/04 03:13:48;;;;;;;31.30;15.50;;;;;;;4.42;66.96;96863.75;4883754;28;20164;-78
2022/12/04 03:16:24;;;;;;;31.52;14.98;;;;;;;4.52;66.74;96864.06;4882018;28;20374;-76
2022/12/04 03:18:57;;;;;;;30.85;14.23;;;;;;;4.25;67.81;96866.88;4884138;28;20590;-77
2022/12/04 03:21:27;;;;;;;33.22;14.27;;;;;;;4.37;66.88;96868.75;4884460;28;20039;-77
2022/12/04 03:24:01;;;;;;;30.13;14.63;;;;;;;4.29;67.49;96862.09;4883610;28;20105;-76
2022/12/04 03:26:33;;;;;;;30.50;14.77;;;;;;;4.12;68.25;96869.56;4875502;28;20725;-76
2022/12/04 03:29:01;;;;;;;30.38;14.80;;;;;;;4.12;67.52;96862.63;4868361;29;20206;-76
2022/12/04 03:31:53;;;;;;;28.88;13.38;;;;;;;4.24;68.30;96860.16;4883805;28;20736;-76
2022/12/04 03:34:27;;;;;;;31.33;14.40;;;;;;;4.20;67.67;96858.19;4865405;29;20036;-77
2022/12/04 03:36:56;;;;;;;28.98;13.68;;;;;;;3.77;69.23;96862.31;4876480;28;20196;-76
2022/12/04 03:39:30;;;;;;;28.30;14.18;;;;;;;4.28;67.23;96863.09;4878913;28;20219;-77
2022/12/04 03:42:20;;;;;;;29.35;13.60;;;;;;;4.20;67.50;96853.84;4883589;28;20801;-78
2022/12/04 03:45:09;;;;;;;24.00;12.02;;;;;;;4.05;68.75;96855.97;4860333;29;20219;-76
2022/12/04 03:47:53;;;;;;;27.77;12.88;;;;;;;4.02;67.88;96856.38;4879117;28;20180;-77
2022/12/04 03:50:44;;;;;;;29.95;14.70;;;;;;;4.08;68.65;96846.00;4882662;28;20187;-76
2022/12/04 03:53:26;;;;;;;30.67;14.13;;;;;;;4.06;68.11;96832.56;4864354;28;20223;-75
2022/12/04 03:56:02;;;;;;;28.73;14.23;;;;;;;4.19;67.47;96847.09;4882501;28;20046;-77
2022/12/04 03:58:29;;;;;;;24.67;12.10;;;;;;;3.79;68.73;96850.00;4881577;28;20203;-76
2022/12/04 04:00:55;;;;;;;26.52;12.98;;;;;;;3.94;68.38;96840.19;4867415;29;20215;-76
2022/12/04 04:03:24;;;;;;;30.95;13.38;;;;;;;3.91;68.59;96832.09;4866531;29;20507;-76
2022/12/04 04:05:53;;;;;;;26.38;12.88;;;;;;;3.78;68.59;96835.53;4881676;28;20211;-77
2022/12/04 04:08:25;;;;;;;28.05;12.60;;;;;;;3.92;68.84;96831.88;4861824;29;20270;-76
2022/12/04 04:11:02;;;;;;;27.23;13.10;;;;;;;4.18;67.95;96829.28;4882099;28;20758;-77
2022/12/04 04:24:50;;;;;;;31.70;14.55;;;;;;;4.29;67.05;96836.34;4866271;29;20195;-77
2022/12/04 04:27:15;;;;;;;30.67;14.43;;;;;;;4.27;66.91;96844.28;4879240;28;20721;-77
2022/12/04 04:29:42;;;;;;;30.67;14.75;;;;;;;4.07;68.18;96841.06;4864246;28;20192;-77
2022/12/04 04:32:14;;;;;;;31.20;14.73;;;;;;;4.31;67.42;96839.47;4876892;28;20247;-76
2022/12/04 04:34:55;;;;;;;34.13;15.60;;;;;;;4.19;67.70;96836.81;4860964;28;20352;-78
2022/12/04 04:37:23;;;;;;;33.72;15.63;;;;;;;4.22;67.04;96848.50;4868407;28;20267;-77
2022/12/04 04:40:00;;;;;;;35.95;16.60;;;;;;;4.44;66.42;96843.75;4860170;28;20258;-76
2022/12/04 04:43:05;;;;;;;29.50;14.13;;;;;;;4.02;67.71;96838.34;4882828;28;20065;-78
2022/12/04 04:45:43;;;;;;;31.38;14.63;;;;;;;3.60;69.22;96843.16;4880814;28;20207;-77
2022/12/04 04:48:12;;;;;;;35.55;15.27;;;;;;;3.72;68.79;96846.69;4880903;28;20678;-76
2022/12/04 04:50:38;;;;;;;33.88;14.02;;;;;;;3.67;68.71;96849.09;4879623;28;20207;-77
2022/12/04 04:53:17;;;;;;;27.80;13.77;;;;;;;3.82;68.43;96843.63;4882113;28;20231;-76
2022/12/04 04:55:43;;;;;;;32.30;14.30;;;;;;;3.72;68.72;96841.53;4881746;28;20274;-76
2022/12/04 04:58:14;;;;;;;31.90;14.70;;;;;;;3.84;68.40;96837.28;4881767;28;20198;-76
2022/12/04 05:00:40;;;;;;;29.23;13.77;;;;;;;4.03;67.58;96845.09;4881764;28;20335;-76
2022/12/04 05:03:06;;;;;;;30.70;16.10;;;;;;;4.09;67.82;96860.47;4851795;28;20211;-77
2022/12/04 05:05:31;;;;;;;32.45;15.38;;;;;;;4.13;66.77;96853.91;4879410;28;20623;-76
2022/12/04 05:07:56;;;;;;;31.17;16.27;;;;;;;4.11;67.05;96865.41;4871274;28;20211;-77
2022/12/04 05:10:22;;;;;;;36.83;17.23;;;;;;;3.56;69.13;96866.78;4865838;28;20275;-76
2022/12/04 05:12:47;;;;;;;37.60;16.40;;;;;;;3.58;69.28;96865.75;4885474;28;20224;-76
2022/12/04 05:15:13;;;;;;;42.42;18.95;;;;;;;3.41;69.22;96871.41;4870439;28;20219;-76
2022/12/04 05:17:38;;;;;;;34.28;14.98;;;;;;;3.36;69.36;96863.53;4884926;28;20203;-76
2022/12/04 05:20:04;;;;;;;41.50;16.42;;;;;;;3.35;69.92;96867.06;4884798;28;20211;-76
2022/12/04 05:22:35;;;;;;;40.28;18.17;;;;;;;3.41;70.11;96863.69;4884906;28;20313;-77
2022/12/04 05:25:01;;;;;;;40.83;18.52;;;;;;;3.42;69.85;96856.75;4884164;28;20690;-76
2022/12/04 05:27:27;;;;;;;47.80;20.77;;;;;;;3.65;69.66;96864.75;4848172;29;20470;-76
2022/12/04 05:29:54;;;;;;;46.10;20.23;;;;;;;3.62;68.75;96872.09;4880747;28;20308;-76
2022/12/04 05:32:21;;;;;;;40.85;17.88;;;;;;;3.43;70.15;96864.28;4865461;28;20604;-76
2022/12/04 05:34:47;;;;;;;51.15;20.30;;;;;;;3.72;69.40;96878.38;4866213;29;20630;-76
2022/12/04 05:37:12;;;;;;;40.58;18.23;;;;;;;3.72;68.36;96872.44;4884573;28;20293;-76
2022/12/04 05:39:38;;;;;;;46.88;18.42;;;;;;;3.87;68.36;96869.53;4877831;28;20212;-77
2022/12/04 05:42:03;;;;;;;46.28;21.02;;;;;;;3.94;67.65;96873.66;4881600;28;20203;-77
2022/12/04 05:44:29;;;;;;;36.83;15.68;;;;;;;4.13;67.70;96878.88;4874529;28;20266;-77
2022/12/04 05:46:54;;;;;;;41.08;18.55;;;;;;;4.13;66.94;96878.88;4884354;28;20619;-76
2022/12/04 05:49:19;;;;;;;39.80;17.08;;;;;;;3.93;67.56;96887.53;4884685;28;20169;-77
2022/12/04 05:51:45;;;;;;;37.42;17.73;;;;;;;4.15;67.37;96889.75;4881751;28;20302;-77
2022/12/04 05:54:10;;;;;;;35.53;15.50;;;;;;;4.17;67.35;96890.34;4870247;28;20231;-77
2022/12/04 05:56:35;;;;;;;31.85;14.75;;;;;;;4.27;67.20;96895.81;4883999;28;20243;-78
2022/12/04 05:59:01;;;;;;;34.47;14.57;;;;;;;4.31;66.94;96899.53;4884572;28;20104;-76
2022/12/04 06:01:26;;;;;;;36.53;16.05;;;;;;;4.23;66.43;96902.41;4863003;28;20373;-76
2022/12/04 06:03:51;;;;;;;36.83;15.52;;;;;;;4.26;67.56;96894.22;4881470;28;20370;-76
2022/12/04 06:06:18;;;;;;;34.83;15.57;;;;;;;4.15;67.54;96894.91;4867399;29;20632;-77
2022/12/04 06:08:43;;;;;;;36.38;15.80;;;;;;;3.91;68.13;96892.09;4883683;28;20223;-77
2022/12/04 06:11:13;;;;;;;38.22;18.08;;;;;;;4.19;67.32;96887.56;4880348;28;20196;-77
2022/12/04 06:13:41;;;;;;;46.72;21.08;;;;;;;4.07;67.45;96895.94;4883283;28;20282;-77
2022/12/04 06:16:11;;;;;;;39.40;16.25;;;;;;;3.94;68.04;96886.53;4883271;28;20242;-77
2022/12/04 06:18:37;;;;;;;33.70;16.33;;;;;;;3.74;68.82;96878.16;4850754;29;20198;-77
2022/12/04 06:21:02;;;;;;;39.00;18.17;;;;;;;3.54;69.83;96876.47;4877197;28;20204;-76
2022/12/04 06:23:28;;;;;;;39.25;17.75;;;;;;;3.76;68.67;96881.31;4881188;28;20273;-76
2022/12/04 06:25:53;;;;;;;38.20;16.65;;;;;;;4.07;67.71;96877.13;4882581;28;20096;-77
2022/12/04 06:28:18;;;;;;;37.33;15.80;;;;;;;4.13;67.56;96884.03;4883143;28;20373;-76
2022/12/04 06:30:43;;;;;;;41.55;16.60;;;;;;;4.21;67.60;96876.03;4877158;28;20276;-76
2022/12/04 06:33:09;;;;;;;40.00;17.08;;;;;;;3.92;67.83;96877.44;4866410;28;20286;-77
2022/12/04 06:35:34;;;;;;;40.28;17.77;;;;;;;3.65;69.37;96871.66;4882400;28;20207;-77
2022/12/04 06:37:59;;;;;;;37.00;15.82;;;;;;;3.70;68.41;96884.69;4882813;28;20198;-76
2022/12/04 06:40:25;;;;;;;41.40;16.58;;;;;;;3.83;68.33;96879.47;4880426;28;20334;-76
2022/12/04 06:42:50;;;;;;;36.75;16.63;;;;;;;3.92;68.72;96880.81;4877045;28;20884;-76
2022/12/04 06:45:16;;;;;;;38.25;16.48;;;;;;;3.89;67.79;96883.00;4875388;28;20634;-76
2022/12/04 06:47:41;;;;;;;52.13;25.65;;;;;;;3.62;69.20;96882.41;4879971;28;20192;-76
2022/12/04 06:50:07;;;;;;;44.08;20.38;;;;;;;3.67;69.16;96878.19;4880623;28;20732;-76
2022/12/04 06:52:57;;;;;;;38.53;17.52;;;;;;;3.46;70.10;96870.78;4873735;28;20254;-76
2022/12/04 06:55:22;;;;;;;30.85;13.65;;;;;;;3.85;68.39;96877.47;4882702;28;20301;-77
2022/12/04 06:57:48;;;;;;;32.42;14.38;;;;;;;3.66;68.88;96879.19;4883377;28;20172;-76
2022/12/04 07:00:15;;;;;;;28.50;12.73;;;;;;;3.96;67.62;96883.75;4868845;28;20386;-77
2022/12/04 07:02:42;;;;;;;28.92;14.25;;;;;;;4.02;68.01;96879.56;4855571;29;20205;-76
2022/12/04 07:05:08;;;;;;;34.00;14.10;;;;;;;4.11;67.07;96881.66;4867953;29;20654;-76
2022/12/04 07:07:33;;;;;;;29.58;13.65;;;;;;;3.99;68.11;96877.38;4883975;28;20215;-77
2022/12/04 07:09:59;;;;;;;27.48;13.10;;;;;;;3.72;69.13;96875.78;4883590;28;20203;-76
2022/12/04 07:12:24;;;;;;;26.30;11.93;;;;;;;3.69;69.12;96878.00;4880647;28;20211;-76
2022/12/04 07:14:49;;;;;;;22.23;10.05;;;;;;;3.77;68.99;96880.31;4883208;28;20173;-77
2022/12/04 07:17:15;;;;;;;24.02;11.07;;;;;;;3.67;69.03;96880.00;4868898;28;20217;-76
2022/12/04 07:19:40;;;;;;;22.33;11.07;;;;;;;4.00;68.15;96876.41;4883478;28;20203;-77
2022/12/04 07:22:07;;;;;;;24.25;10.50;;;;;;;4.03;67.83;96883.72;4881161;28;20274;-77
2022/12/04 07:24:35;;;;;;;22.38;10.52;;;;;;;4.04;67.97;96893.00;4879318;28;20497;-77
2022/12/04 07:27:00;;;;;;;24.65;11.30;;;;;;;3.91;68.22;96878.44;4851349;28;20609;-77
2022/12/04 07:29:25;;;;;;;29.15;15.13;;;;;;;3.97;68.04;96876.81;4871408;28;20142;-76
2022/12/04 07:31:51;;;;;;;26.35;11.90;;;;;;;4.06;68.01;96883.28;4869060;28;20286;-77
2022/12/04 07:34:16;;;;;;;22.58;11.18;;;;;;;4.21;67.66;96890.72;4881019;28;20250;-78
2022/12/04 07:36:42;;;;;;;23.67;11.85;;;;;;;4.09;68.03;96893.16;4883063;28;20203;-76
2022/12/04 07:39:07;;;;;;;23.98;11.27;;;;;;;4.13;68.19;96894.34;4871163;28;20165;-76
2022/12/04 07:41:33;;;;;;;20.13;9.70;;;;;;;4.22;67.44;96893.06;4883170;28;20262;-75
2022/12/04 07:43:58;;;;;;;25.15;11.35;;;;;;;4.27;67.96;96890.66;4873849;28;20143;-77
2022/12/04 07:46:25;;;;;;;25.63;10.85;;;;;;;4.23;68.05;96883.56;4856621;28;20623;-77
2022/12/04 07:48:51;;;;;;;21.50;10.77;;;;;;;4.23;67.53;96884.34;4835507;29;20773;-77
2022/12/04 07:51:21;;;;;;;26.73;12.90;;;;;;;4.32;67.60;96877.16;4882901;28;20287;-76
2022/12/04 07:53:47;;;;;;;22.88;11.30;;;;;;;4.16;67.27;96878.44;4880743;28;20282;-77
2022/12/04 07:56:13;;;;;;;23.33;11.88;;;;;;;4.18;67.88;96876.47;4882488;28;20178;-77
2022/12/04 07:58:39;;;;;;;20.77;10.80;;;;;;;4.11;68.21;96883.44;4864449;28;20196;-76
2022/12/04 08:01:12;;;;;;;24.77;10.95;;;;;;;4.28;67.78;96884.53;4876534;28;20395;-77
2022/12/04 08:03:39;;;;;;;26.08;12.25;;;;;;;4.13;67.93;96895.13;4874330;28;20669;-77
2022/12/04 08:06:05;;;;;;;23.75;11.00;;;;;;;4.27;67.87;96893.22;4868344;28;20281;-76
2022/12/04 08:08:31;;;;;;;23.70;10.77;;;;;;;4.40;67.32;96894.13;4882551;28;20176;-76
2022/12/04 08:10:57;;;;;;;24.70;11.68;;;;;;;4.37;67.17;96897.13;4882940;28;20215;-76
2022/12/04 08:13:23;;;;;;;23.77;11.13;;;;;;;4.21;67.66;96894.06;4864040;28;20739;-76
2022/12/04 08:15:48;;;;;;;27.35;11.32;;;;;;;4.39;67.27;96890.75;4879273;28;20204;-76
2022/12/04 08:18:14;;;;;;;27.00;12.75;;;;;;;4.04;68.57;96891.22;4872497;28;20768;-77
2022/12/04 08:20:39;;;;;;;25.85;11.70;;;;;;;4.22;68.38;96893.06;4863795;28;20258;-76
2022/12/04 08:23:04;;;;;;;27.67;12.80;;;;;;;4.38;67.92;96881.44;4868793;28;20595;-76
2022/12/04 08:25:30;;;;;;;65.63;28.20;;;;;;;4.20;68.50;96879.63;4874338;28;20309;-76
2022/12/04 08:27:55;;;;;;;38.42;16.55;;;;;;;4.10;68.16;96880.09;4874884;28;20247;-77
2022/12/04 08:30:20;;;;;;;27.20;12.68;;;;;;;4.25;68.42;96874.63;4882772;28;20247;-76
2022/12/04 08:32:46;;;;;;;29.15;13.75;;;;;;;4.48;67.59;96883.53;4883043;28;20191;-76
2022/12/04 08:35:12;;;;;;;36.15;16.40;;;;;;;4.44;67.71;96878.03;4880578;28;20191;-76
2022/12/04 08:37:37;;;;;;;26.95;12.07;;;;;;;4.45;67.47;96882.16;4883455;28;20195;-77
2022/12/04 08:40:03;;;;;;;29.33;13.30;;;;;;;4.42;67.23;96887.75;4863148;28;20259;-77
2022/12/04 08:42:28;;;;;;;26.88;13.00;;;;;;;4.12;68.86;96890.97;4885364;28;20290;-77
2022/12/04 08:44:53;;;;;;;29.83;13.80;;;;;;;4.39;67.40;96892.56;4879401;28;20644;-76
2022/12/04 08:47:19;;;;;;;29.50;13.32;;;;;;;4.52;67.61;96891.63;4886595;28;20287;-76
2022/12/04 08:49:44;;;;;;;26.83;12.82;;;;;;;4.64;67.47;96884.78;4886177;28;20223;-76
2022/12/04 08:52:10;;;;;;;28.05;12.45;;;;;;;4.61;67.16;96880.03;4886642;28;20258;-76
2022/12/04 08:54:35;;;;;;;30.30;14.00;;;;;;;4.71;67.14;96882.13;4883671;28;20257;-76
2022/12/04 08:57:01;;;;;;;29.63;14.10;;;;;;;4.50;67.36;96886.69;4883778;28;20269;-77
2022/12/04 08:59:26;;;;;;;26.50;12.27;;;;;;;4.70;67.21;96891.69;4880819;28;20359;-77
2022/12/04 09:01:52;;;;;;;31.05;13.95;;;;;;;4.57;67.68;96884.06;4886557;28;20634;-77
2022/12/04 09:04:17;;;;;;;22.25;10.80;;;;;;;4.76;66.69;96882.28;4882101;28;20282;-76
2022/12/04 09:06:43;;;;;;;26.45;12.13;;;;;;;4.76;66.90;96884.88;4860327;28;20636;-77
2022/12/04 09:09:08;;;;;;;24.63;12.82;;;;;;;4.72;67.27;96879.34;4880651;28;20105;-76
2022/12/04 09:11:34;;;;;;;28.65;12.77;;;;;;;4.73;67.08;96882.72;4886109;28;20266;-76
2022/12/04 09:14:01;;;;;;;24.13;11.52;;;;;;;4.82;66.95;96891.75;4885970;28;20359;-76
2022/12/04 09:16:26;;;;;;;24.90;12.10;;;;;;;4.84;66.70;96884.59;4867806;28;20574;-76
2022/12/04 09:18:52;;;;;;;26.05;11.98;;;;;;;4.76;66.84;96874.56;4886306;28;20097;-77
2022/12/04 09:21:19;;;;;;;37.42;17.08;;;;;;;4.57;67.80;96879.69;4886435;28;20268;-77
2022/12/04 09:23:45;;;;;;;29.42;13.68;;;;;;;4.53;68.06;96882.91;4857507;29;20653;-76
2022/12/04 09:26:25;;;;;;;30.98;13.43;;;;;;;4.82;67.84;96884.03;4852760;29;20216;-76
2022/12/04 09:28:51;;;;;;;38.47;18.02;;;;;;;4.77;66.50;96873.56;4840297;29;20204;-76
2022/12/04 09:31:18;;;;;;;30.90;13.52;;;;;;;4.67;67.63;96868.88;4869132;28;20606;-77
2022/12/04 09:33:43;;;;;;;30.00;14.27;;;;;;;4.74;67.56;96874.75;4852859;28;20292;-77
2022/12/04 09:36:14;;;;;;;27.92;12.73;;;;;;;4.76;67.40;96871.97;4866537;28;20243;-76
2022/12/04 09:38:41;;;;;;;26.48;11.95;;;;;;;4.55;68.16;96873.94;4875873;28;20280;-76
2022/12/04 09:41:09;;;;;;;25.95;13.00;;;;;;;4.29;68.23;96877.56;4884588;28;20172;-77
2022/12/04 09:43:37;;;;;;;29.80;13.43;;;;;;;4.50;68.42;96889.28;4867380;28;20188;-76
2022/12/04 09:46:09;;;;;;;24.95;12.10;;;;;;;4.81;67.45;96887.59;4857827;29;20208;-76
2022/12/04 09:48:36;;;;;;;27.30;12.95;;;;;;;4.80;67.79;96888.63;4884448;28;20361;-76
2022/12/04 09:51:03;;;;;;;29.30;12.15;;;;;;;4.68;67.57;96894.47;4884544;28;20290;-77
2022/12/04 09:53:41;;;;;;;34.67;14.40;;;;;;;4.67;68.04;96894.66;4883291;28;20207;-77
2022/12/04 09:56:10;;;;;;;25.60;12.65;;;;;;;4.79;67.69;96894.75;4866573;28;20215;-76
2022/12/04 09:58:40;;;;;;;29.15;13.18;;;;;;;4.77;67.73;96905.28;4885054;28;20077;-77
2022/12/04 10:01:29;;;;;;;29.58;13.32;;;;;;;4.86;67.54;96900.63;4885038;28;20290;-76
2022/12/04 10:03:55;;;;;;;31.23;15.57;;;;;;;4.90;67.37;96899.22;4867541;28;20216;-76
2022/12/04 10:06:26;;;;;;;29.02;13.10;;;;;;;5.07;67.12;96895.06;4879578;28;20359;-76
2022/12/04 10:09:00;;;;;;;34.38;15.98;;;;;;;5.00;66.46;96891.78;4877982;28;20213;-76
2022/12/04 10:11:41;;;;;;;29.77;13.52;;;;;;;4.96;66.94;96888.03;4870103;28;20291;-76
2022/12/04 10:14:25;;;;;;;26.15;12.98;;;;;;;4.95;67.31;96889.06;4884313;28;20716;-76
2022/12/04 10:16:53;;;;;;;28.13;12.88;;;;;;;4.94;67.04;96887.47;4875273;28;20199;-75
2022/12/04 10:19:21;;;;;;;27.23;12.43;;;;;;;4.97;67.66;96884.47;4863035;29;20215;-76
2022/12/04 10:21:58;;;;;;;27.80;12.50;;;;;;;5.16;67.14;96884.44;4869909;28;20248;-76
2022/12/04 10:24:30;;;;;;;32.83;15.15;;;;;;;5.07;67.69;96877.00;4876506;28;20374;-76
2022/12/04 10:26:57;;;;;;;26.38;12.93;;;;;;;4.88;67.03;96870.25;4861340;28;20200;-76
2022/12/04 10:29:25;;;;;;;27.25;13.07;;;;;;;5.01;67.31;96867.53;4884158;28;20195;-77
2022/12/04 10:31:53;;;;;;;27.25;13.80;;;;;;;4.95;67.25;96865.03;4877863;28;20183;-76
2022/12/04 10:34:28;;;;;;;26.73;14.02;;;;;;;5.12;67.18;96873.75;4884018;28;20214;-76
2022/12/04 10:36:59;;;;;;;32.10;16.08;;;;;;;5.16;67.71;96871.56;4883090;28;20633;-76
2022/12/04 10:39:29;;;;;;;33.60;16.00;;;;;;;5.16;67.03;96866.38;4849613;28;20199;-75
2022/12/04 10:42:09;;;;;;;32.60;15.65;;;;;;;5.22;66.78;96855.97;4883136;28;20679;-76
2022/12/04 10:44:34;;;;;;;32.13;15.77;;;;;;;4.97;67.32;96863.81;4875615;28;20203;-76
2022/12/04 10:47:02;;;;;;;29.65;14.15;;;;;;;5.09;66.91;96853.56;4881967;28;20295;-76
2022/12/04 10:49:30;;;;;;;32.05;16.25;;;;;;;5.24;66.44;96860.91;4881790;28;20203;-76
2022/12/04 10:51:56;;;;;;;27.08;13.00;;;;;;;5.26;66.70;96856.34;4883237;28;20339;-76
2022/12/04 10:54:34;;;;;;;27.30;13.68;;;;;;;5.38;66.63;96859.75;4881471;28;20461;-75
2022/12/04 10:57:05;;;;;;;32.42;15.25;;;;;;;5.22;66.50;96855.97;4868189;28;20267;-76
2022/12/04 10:59:31;;;;;;;32.28;15.35;;;;;;;4.99;67.54;96856.66;4853151;29;20199;-75
2022/12/04 11:02:04;;;;;;;31.02;15.13;;;;;;;5.20;66.92;96852.81;4864277;29;20256;-76
2022/12/04 11:04:30;;;;;;;27.88;14.20;;;;;;;5.05;67.57;96849.81;4836159;29;20204;-76
2022/12/04 11:07:20;;;;;;;27.92;14.18;;;;;;;5.25;66.43;96855.53;4880703;28;20258;-76
2022/12/04 11:10:06;;;;;;;30.65;14.25;;;;;;;5.24;66.79;96842.84;4861740;29;20187;-76
2022/12/04 11:12:32;;;;;;;27.85;13.10;;;;;;;5.05;67.27;96831.75;4885564;28;20646;-76
2022/12/04 11:15:13;;;;;;;26.77;12.90;;;;;;;5.28;66.20;96833.66;4882648;28;20226;-76
2022/12/04 11:17:39;;;;;;;29.52;13.23;;;;;;;5.13;67.57;96835.84;4863664;29;20278;-75
2022/12/04 11:20:08;;;;;;;26.92;13.77;;;;;;;5.16;67.76;96838.00;4866857;29;20283;-76
2022/12/04 11:22:36;;;;;;;28.55;11.77;;;;;;;5.21;67.22;96838.13;4876437;28;20769;-76
2022/12/04 11:25:02;;;;;;;25.95;12.07;;;;;;;5.05;67.56;96832.56;4861606;29;20223;-76
2022/12/04 11:27:32;;;;;;;26.13;11.98;;;;;;;5.30;66.89;96841.97;4879700;28;20635;-76
2022/12/04 11:30:07;;;;;;;27.17;11.90;;;;;;;5.10;67.53;96851.75;4864254;29;20395;-76
2022/12/04 11:32:32;;;;;;;;;;;;;;;5.40;66.36;96844.81;4883166;28;20462;-76
2022/12/04 11:35:03;;;;;;;26.60;12.32;;;;;;;5.00;67.41;96847.09;4866542;28;20052;-76
2022/12/04 11:37:33;;;;;;;29.67;13.35;;;;;;;5.07;68.10;96848.63;4883363;28;20698;-76
2022/12/04 11:40:00;;;;;;;29.60;13.20;;;;;;;5.15;67.78;96857.06;4845784;28;20645;-76
2022/12/04 11:42:29;;;;;;;24.20;12.10;;;;;;;5.21;67.53;96854.41;4882631;28;20199;-76
2022/12/04 11:45:21;;;;;;;26.88;12.32;;;;;;;5.24;67.42;96846.22;4861262;28;20637;-76
2022/12/04 11:47:55;;;;;;;29.58;13.10;;;;;;;5.39;66.59;96837.28;4881227;28;20238;-76